Time;durP1;ratioP1;P1;durP2;ratioP2;P2;SDS_P1;SDS_P2;PMS_P1;PMS_P2;Temp;Humidity;BMP_temperature;BMP_pressure;BME280_temperature;BME280_humidity;BME280_pressure;Samples;Min_cycle;Max_cycle;Signal;HPM_P1;HPM_P2
2022/01/29 00:01:47;;;;;;;5.75;3.00;;;;;;;12.13;39.02;101980.72;5008703;28;20050;-74
2022/01/29 00:04:16;;;;;;;5.63;2.53;;;;;;;12.16;40.13;101978.22;4994900;28;20050;-75
2022/01/29 00:06:45;;;;;;;4.85;2.90;;;;;;;12.17;38.13;101981.75;5008063;28;20053;-74
2022/01/29 00:09:15;;;;;;;4.70;2.83;;;;;;;12.18;38.61;101980.91;5007950;28;20134;-74
2022/01/29 00:11:45;;;;;;;5.45;3.22;;;;;;;12.19;38.42;101974.91;4994647;28;20050;-76
2022/01/29 00:14:15;;;;;;;8.38;3.15;;;;;;;12.19;38.23;101970.59;5007284;28;20182;-76
2022/01/29 00:16:44;;;;;;;4.57;3.38;;;;;;;12.13;38.36;101966.03;4994907;28;20062;-75
2022/01/29 00:19:12;;;;;;;6.43;3.60;;;;;;;12.08;38.03;101966.66;5011108;28;20056;-76
2022/01/29 00:21:41;;;;;;;5.40;3.30;;;;;;;12.04;38.13;101963.03;5014136;28;20049;-76
2022/01/29 00:24:09;;;;;;;5.90;3.60;;;;;;;12.02;38.09;101956.88;4999428;28;20046;-75
2022/01/29 00:26:38;;;;;;;8.75;3.50;;;;;;;12.01;38.84;101954.25;5001234;28;20395;-74
2022/01/29 00:29:15;;;;;;;5.70;3.40;;;;;;;11.99;39.21;101951.59;5013348;28;20042;-75
2022/01/29 00:31:45;;;;;;;6.15;3.42;;;;;;;11.92;38.99;101955.63;5000198;28;20262;-75
2022/01/29 00:34:13;;;;;;;7.63;3.50;;;;;;;11.86;38.02;101959.63;5013863;28;20542;-74
2022/01/29 00:36:42;;;;;;;5.80;3.33;;;;;;;11.79;38.37;101953.28;4999490;28;20088;-75
2022/01/29 00:39:10;;;;;;;7.25;3.40;;;;;;;11.72;39.38;101957.31;5004411;28;20171;-75
2022/01/29 00:41:39;;;;;;;4.90;3.22;;;;;;;11.65;39.69;101955.25;5008275;28;20507;-72
2022/01/29 00:44:07;;;;;;;5.95;3.35;;;;;;;11.52;39.56;101951.25;5012997;28;20057;-75
2022/01/29 00:46:51;;;;;;;6.45;3.55;;;;;;;11.37;39.51;101945.38;5016318;28;20100;-75
2022/01/29 00:49:20;;;;;;;7.95;3.08;;;;;;;11.24;39.66;101943.03;4994004;28;20109;-75
2022/01/29 00:51:48;;;;;;;7.68;3.00;;;;;;;11.13;38.43;101949.41;4998946;28;20060;-75
2022/01/29 00:54:17;;;;;;;5.15;3.22;;;;;;;11.01;40.16;101947.16;5013219;28;20045;-75
2022/01/29 00:56:45;;;;;;;4.75;2.58;;;;;;;10.91;39.28;101945.84;4997650;28;20047;-74
2022/01/29 00:59:15;;;;;;;4.85;2.58;;;;;;;10.82;39.42;101948.88;4994236;28;20566;-74
2022/01/29 01:01:46;;;;;;;4.28;2.53;;;;;;;10.72;39.60;101946.69;4992118;28;20077;-73
2022/01/29 01:04:14;;;;;;;4.60;2.47;;;;;;;10.62;40.04;101947.91;4993205;28;20050;-73
2022/01/29 01:06:43;;;;;;;4.28;2.42;;;;;;;10.53;41.04;101955.22;5007979;28;20046;-74
2022/01/29 01:09:12;;;;;;;3.88;2.50;;;;;;;10.42;40.83;101949.56;4995078;28;20038;-75
2022/01/29 01:11:40;;;;;;;4.00;2.30;;;;;;;10.32;41.03;101957.66;5006367;28;20050;-73
2022/01/29 01:14:09;;;;;;;4.28;2.20;;;;;;;10.22;41.06;101956.28;4999494;28;20050;-74
2022/01/29 01:16:37;;;;;;;5.60;1.90;;;;;;;10.14;41.06;101956.72;5013047;28;20562;-74
2022/01/29 01:19:07;;;;;;;4.53;2.30;;;;;;;10.02;42.14;101946.63;5013095;28;20042;-75
2022/01/29 01:21:36;;;;;;;6.40;2.25;;;;;;;9.90;41.87;101956.38;5003760;28;20050;-75
2022/01/29 01:24:04;;;;;;;3.53;2.08;;;;;;;9.77;42.57;101953.13;4992373;28;20504;-75
2022/01/29 01:26:33;;;;;;;5.90;2.25;;;;;;;9.56;42.62;101949.44;4991831;28;20046;-75
2022/01/29 01:29:02;;;;;;;5.75;2.17;;;;;;;9.35;43.40;101950.06;4994767;28;20046;-77
2022/01/29 01:31:30;;;;;;;5.93;2.30;;;;;;;9.18;43.30;101950.84;5005097;28;20057;-77
2022/01/29 01:33:59;;;;;;;4.53;2.40;;;;;;;9.07;43.08;101942.53;4991186;28;20081;-76
2022/01/29 01:36:29;;;;;;;5.65;2.88;;;;;;;8.99;43.05;101944.66;4990155;28;20046;-78
2022/01/29 01:39:03;;;;;;;6.43;2.30;;;;;;;8.91;43.69;101951.13;4992199;28;20057;-78
2022/01/29 01:41:38;;;;;;;3.97;2.35;;;;;;;8.81;43.99;101949.69;4994193;28;20056;-79
2022/01/29 01:44:07;;;;;;;7.22;2.60;;;;;;;8.74;44.21;101949.28;5003015;28;20249;-78
2022/01/29 01:46:35;;;;;;;4.22;2.50;;;;;;;8.68;43.82;101948.94;4992339;28;20740;-76
2022/01/29 01:49:04;;;;;;;5.07;2.88;;;;;;;8.59;44.17;101952.78;5000222;28;20096;-75
2022/01/29 01:51:34;;;;;;;4.05;2.45;;;;;;;8.50;44.87;101947.09;5008546;28;20107;-75
2022/01/29 01:54:03;;;;;;;8.07;2.38;;;;;;;8.39;44.53;101948.16;4998192;28;20088;-77
2022/01/29 01:56:31;;;;;;;3.65;2.65;;;;;;;8.26;44.76;101953.41;4996993;28;20533;-80
2022/01/29 01:59:00;;;;;;;10.13;2.50;;;;;;;8.13;44.65;101950.13;5010040;28;20053;-81
2022/01/29 02:01:29;;;;;;;4.65;2.50;;;;;;;7.98;44.54;101947.50;5011041;28;20293;-81
2022/01/29 02:03:57;;;;;;;4.43;2.30;;;;;;;7.86;45.08;101945.91;5009770;28;20538;-81
2022/01/29 02:06:26;;;;;;;5.93;2.25;;;;;;;7.71;46.27;101935.56;5010175;28;20093;-80
2022/01/29 02:08:59;;;;;;;6.50;2.50;;;;;;;7.62;46.86;101937.59;4996268;28;20078;-79
2022/01/29 02:11:28;;;;;;;5.90;2.97;;;;;;;7.60;46.17;101942.63;5010042;28;20052;-80
2022/01/29 02:13:59;;;;;;;5.15;2.42;;;;;;;7.56;46.46;101940.69;5010228;28;20052;-79
2022/01/29 02:16:30;;;;;;;4.90;2.58;;;;;;;7.52;46.79;101944.75;5009876;28;20096;-81
2022/01/29 02:18:58;;;;;;;3.85;2.38;;;;;;;7.45;46.58;101950.34;5010165;28;20054;-82
2022/01/29 02:21:33;;;;;;;4.55;2.90;;;;;;;7.41;46.84;101945.78;5003367;28;20504;-76
2022/01/29 02:24:01;;;;;;;5.32;2.67;;;;;;;7.40;46.79;101944.03;5004540;28;20050;-77
2022/01/29 02:26:30;;;;;;;6.05;2.63;;;;;;;7.37;47.63;101945.50;4996119;28;20546;-86
2022/01/29 02:28:58;;;;;;;5.50;2.83;;;;;;;7.34;46.84;101949.66;5010173;28;20076;-79
2022/01/29 02:31:27;;;;;;;6.63;2.47;;;;;;;7.31;46.75;101944.34;4993533;28;20558;-78
2022/01/29 02:33:55;;;;;;;3.75;2.35;;;;;;;7.29;47.37;101943.34;5009012;28;20097;-81
2022/01/29 02:36:24;;;;;;;6.43;2.95;;;;;;;7.26;47.21;101943.19;4995109;28;20058;-79
2022/01/29 02:38:54;;;;;;;4.63;2.28;;;;;;;7.22;47.35;101946.34;4990285;28;20050;-79
2022/01/29 02:41:24;;;;;;;5.22;2.42;;;;;;;7.19;47.63;101940.09;4991731;28;20058;-81
2022/01/29 02:43:52;;;;;;;4.03;2.42;;;;;;;7.15;47.67;101949.34;4995602;28;20058;-81
2022/01/29 02:46:29;;;;;;;6.47;2.47;;;;;;;7.10;48.16;101948.13;5008233;28;20131;-79
2022/01/29 02:48:58;;;;;;;7.13;2.72;;;;;;;7.03;47.95;101953.69;5005059;28;20053;-80
2022/01/29 02:51:26;;;;;;;3.80;2.30;;;;;;;6.98;48.15;101944.81;4990040;28;20258;-80
2022/01/29 02:53:57;;;;;;;5.75;2.85;;;;;;;6.90;48.91;101942.63;5008504;28;20049;-80
2022/01/29 02:56:25;;;;;;;4.88;2.35;;;;;;;6.87;48.83;101952.75;4993921;28;20060;-80
2022/01/29 02:58:54;;;;;;;5.57;2.55;;;;;;;6.83;48.35;101950.78;4995945;28;20049;-80
2022/01/29 03:01:22;;;;;;;5.18;2.60;;;;;;;6.78;48.65;101962.47;4996016;28;20100;-79
2022/01/29 03:03:50;;;;;;;7.57;2.70;;;;;;;6.72;48.43;101952.66;4995913;28;20474;-82
2022/01/29 03:06:19;;;;;;;5.10;2.33;;;;;;;6.69;48.86;101957.59;5008455;28;20070;-81
2022/01/29 03:08:47;;;;;;;4.30;2.42;;;;;;;6.64;49.17;101955.50;5009649;28;20058;-81
2022/01/29 03:11:19;;;;;;;4.78;2.33;;;;;;;6.55;49.08;101960.06;5009893;28;20108;-81
2022/01/29 03:13:48;;;;;;;4.30;2.10;;;;;;;6.40;49.28;101952.25;4994710;28;20046;-85
2022/01/29 03:16:17;;;;;;;4.93;2.40;;;;;;;6.26;49.54;101954.81;4990243;28;20085;-83
2022/01/29 03:18:45;;;;;;;6.72;2.33;;;;;;;6.23;49.91;101963.97;5003402;28;20061;-83
2022/01/29 03:21:14;;;;;;;3.95;2.40;;;;;;;6.20;50.55;101968.91;5009843;28;20108;-81
2022/01/29 03:23:43;;;;;;;5.90;2.80;;;;;;;6.17;49.97;101968.72;4997216;28;20555;-83
2022/01/29 03:26:11;;;;;;;5.53;2.78;;;;;;;6.14;50.65;101969.41;4994878;28;20057;-78
2022/01/29 03:28:41;;;;;;;6.75;3.08;;;;;;;6.12;50.58;101977.81;4999529;28;20050;-79
2022/01/29 03:31:10;;;;;;;5.13;2.97;;;;;;;6.11;50.16;101978.59;4994929;28;20109;-78
2022/01/29 03:33:38;;;;;;;5.82;2.83;;;;;;;6.09;50.39;101991.31;5001424;28;20100;-79
2022/01/29 03:36:07;;;;;;;5.47;2.72;;;;;;;6.08;50.56;101985.28;5004030;28;20133;-78
2022/01/29 03:38:39;;;;;;;5.45;2.70;;;;;;;6.04;50.37;101988.44;4995262;28;20495;-78
2022/01/29 03:41:09;;;;;;;6.47;3.00;;;;;;;6.05;50.25;101990.25;5010966;28;20046;-78
2022/01/29 03:43:43;;;;;;;5.22;2.65;;;;;;;6.05;50.38;101990.25;4991937;28;20077;-79
2022/01/29 03:46:14;;;;;;;5.75;2.33;;;;;;;6.07;50.09;101998.06;4990173;28;20047;-81
2022/01/29 03:48:43;;;;;;;6.88;2.80;;;;;;;6.07;50.23;101998.94;4995716;28;20088;-80
2022/01/29 03:51:11;;;;;;;7.00;2.92;;;;;;;6.06;50.66;101997.16;5011921;28;20058;-80
2022/01/29 03:53:40;;;;;;;6.45;2.70;;;;;;;6.05;50.32;101999.63;4999199;28;20073;-79
2022/01/29 03:56:08;;;;;;;6.88;3.47;;;;;;;6.02;50.24;102000.28;5012952;28;20109;-82
2022/01/29 03:58:37;;;;;;;5.80;3.10;;;;;;;6.01;50.27;102002.78;4998386;28;20092;-79
2022/01/29 04:01:05;;;;;;;8.25;3.67;;;;;;;5.99;50.39;101999.22;5013004;28;20499;-81
2022/01/29 04:03:35;;;;;;;8.63;3.38;;;;;;;5.96;50.48;102001.59;4998866;28;20085;-79
2022/01/29 04:06:04;;;;;;;6.35;2.88;;;;;;;5.93;50.06;101994.50;5012581;28;20111;-83
2022/01/29 04:08:39;;;;;;;6.90;3.38;;;;;;;5.92;50.75;101992.72;4998029;28;20100;-78
2022/01/29 04:11:08;;;;;;;5.55;2.95;;;;;;;5.88;50.37;102001.88;5012952;28;20508;-80
2022/01/29 04:13:38;;;;;;;6.28;3.00;;;;;;;5.79;50.02;101992.66;4998323;28;20097;-81
2022/01/29 04:16:07;;;;;;;7.22;2.80;;;;;;;5.84;51.32;102015.34;4993395;28;20518;-79
2022/01/29 04:18:37;;;;;;;7.43;3.20;;;;;;;5.78;50.84;102020.03;4997615;28;20046;-77
2022/01/29 04:21:06;;;;;;;10.52;4.22;;;;;;;5.75;51.21;102027.53;5011664;28;20085;-80
2022/01/29 04:23:36;;;;;;;13.05;4.28;;;;;;;5.67;51.61;102027.00;5000812;28;20507;-78
2022/01/29 04:26:06;;;;;;;10.13;4.30;;;;;;;5.61;52.25;102031.72;4996331;28;20061;-85
2022/01/29 04:28:38;;;;;;;12.32;4.15;;;;;;;5.54;53.12;102026.91;5012821;28;20104;-79
2022/01/29 04:31:12;;;;;;;11.43;4.57;;;;;;;5.48;52.81;102029.06;4995967;28;20053;-78
2022/01/29 04:33:42;;;;;;;10.80;3.70;;;;;;;5.34;53.08;102009.25;5012331;28;20288;-82
2022/01/29 04:36:11;;;;;;;10.55;3.78;;;;;;;5.37;53.47;102025.72;5012167;28;20104;-81
2022/01/29 04:38:39;;;;;;;7.35;3.25;;;;;;;5.33;53.34;102013.47;5012736;28;20507;-79
2022/01/29 04:41:08;;;;;;;8.77;3.60;;;;;;;5.31;53.30;102014.13;4999850;28;20097;-80
2022/01/29 04:43:38;;;;;;;6.50;3.15;;;;;;;5.28;53.04;102019.94;4992552;28;20050;-83
2022/01/29 04:46:07;;;;;;;7.82;3.67;;;;;;;5.21;52.88;102010.91;5005613;28;20119;-76
2022/01/29 04:48:35;;;;;;;7.75;3.42;;;;;;;5.16;53.65;102014.84;5011597;28;20084;-76
2022/01/29 04:51:05;;;;;;;7.85;2.75;;;;;;;5.12;53.51;102010.25;5011824;28;20131;-76
2022/01/29 04:53:34;;;;;;;7.50;3.45;;;;;;;5.10;54.01;102010.94;5006470;28;20081;-78
2022/01/29 04:56:02;;;;;;;7.82;3.10;;;;;;;5.06;54.00;102002.13;5003705;28;20097;-79
2022/01/29 04:58:31;;;;;;;6.57;3.38;;;;;;;5.03;53.43;101997.66;5007810;28;20046;-80
2022/01/29 05:00:59;;;;;;;5.65;3.05;;;;;;;4.99;54.07;102005.03;4991924;28;20093;-79
2022/01/29 05:03:27;;;;;;;10.95;3.60;;;;;;;4.93;53.46;102004.63;4994106;28;20492;-79
2022/01/29 05:05:56;;;;;;;6.97;3.78;;;;;;;4.78;53.98;101995.00;5003512;28;20058;-78
2022/01/29 05:08:26;;;;;;;10.55;3.60;;;;;;;4.89;54.12;102018.88;5005164;28;20525;-76
2022/01/29 05:10:55;;;;;;;10.30;3.78;;;;;;;4.89;54.29;102020.56;5006224;28;20129;-78
2022/01/29 05:13:27;;;;;;;7.80;3.60;;;;;;;4.84;53.88;102017.66;4991222;28;20043;-81
2022/01/29 05:16:13;;;;;;;6.70;3.80;;;;;;;4.83;54.13;102013.28;5006120;28;20058;-77
2022/01/29 05:27:02;;;;;;;6.95;3.50;;;;;;;4.81;54.54;102010.63;5001348;28;20054;-80
2022/01/29 05:29:32;;;;;;;6.87;3.70;;;;;;;4.78;54.33;102020.66;4996131;28;20530;-78
2022/01/29 05:32:01;;;;;;;8.52;3.20;;;;;;;4.75;54.32;102017.88;5000503;28;20139;-79
2022/01/29 05:34:29;;;;;;;5.40;3.20;;;;;;;4.74;54.91;102022.88;4997110;28;20053;-79
2022/01/29 05:36:58;;;;;;;7.05;3.40;;;;;;;4.70;55.48;102026.91;5011225;28;20553;-78
2022/01/29 05:39:28;;;;;;;6.07;3.15;;;;;;;4.67;54.87;102029.22;4997526;28;20154;-79
2022/01/29 05:41:57;;;;;;;7.40;3.65;;;;;;;4.66;55.55;102035.16;5000721;28;20077;-78
2022/01/29 05:44:26;;;;;;;7.20;3.30;;;;;;;4.61;55.53;102039.03;5010926;28;20139;-77
2022/01/29 05:46:54;;;;;;;8.88;3.55;;;;;;;4.59;55.57;102043.16;5010501;28;20133;-78
2022/01/29 05:49:23;;;;;;;8.80;3.47;;;;;;;4.55;55.74;102038.59;5011122;28;20049;-78
2022/01/29 05:51:52;;;;;;;8.90;4.05;;;;;;;4.55;56.25;102036.03;5010130;28;20053;-77
2022/01/29 05:54:20;;;;;;;6.80;3.25;;;;;;;4.52;56.37;102031.56;4999225;28;20042;-78
2022/01/29 05:56:50;;;;;;;6.00;3.15;;;;;;;4.49;56.13;102036.47;5005334;28;20120;-78
2022/01/29 05:59:19;;;;;;;9.73;3.97;;;;;;;4.46;55.92;102038.78;5001473;28;20555;-78
2022/01/29 06:01:47;;;;;;;8.40;3.20;;;;;;;4.44;56.38;102040.34;4993860;28;20058;-78
2022/01/29 06:04:16;;;;;;;5.88;3.25;;;;;;;4.38;56.71;102043.34;4999339;28;20487;-77
2022/01/29 06:06:44;;;;;;;7.78;3.65;;;;;;;4.38;57.03;102047.59;5008948;28;20135;-78
2022/01/29 06:09:13;;;;;;;7.93;3.83;;;;;;;4.36;56.37;102051.69;5010368;28;20054;-77
2022/01/29 06:11:41;;;;;;;7.78;3.88;;;;;;;4.18;56.87;102034.16;5010098;28;20143;-79
2022/01/29 06:14:12;;;;;;;7.78;3.53;;;;;;;4.25;56.20;102044.88;4996229;28;20104;-78
2022/01/29 06:16:41;;;;;;;12.13;4.35;;;;;;;4.25;56.85;102044.88;4999619;28;20104;-77
2022/01/29 06:19:09;;;;;;;7.97;3.85;;;;;;;4.24;57.32;102051.66;5007558;28;20066;-77
2022/01/29 06:21:37;;;;;;;8.30;3.75;;;;;;;4.20;56.97;102052.22;5001135;28;20054;-76
2022/01/29 06:24:07;;;;;;;7.85;3.67;;;;;;;4.19;57.15;102060.66;4990492;28;20100;-77
2022/01/29 06:26:35;;;;;;;6.22;3.55;;;;;;;4.17;56.79;102057.09;4998555;28;20058;-76
2022/01/29 06:29:04;;;;;;;7.60;3.53;;;;;;;4.12;57.05;102058.41;5010208;28;20071;-77
2022/01/29 06:31:34;;;;;;;10.60;4.53;;;;;;;4.10;57.69;102059.94;4995752;28;20484;-77
2022/01/29 06:34:03;;;;;;;7.10;3.75;;;;;;;4.04;57.60;102064.63;4997952;28;20050;-77
2022/01/29 06:36:31;;;;;;;8.70;4.00;;;;;;;3.99;58.63;102056.59;4995246;28;20061;-78
2022/01/29 06:39:00;;;;;;;8.75;4.25;;;;;;;3.93;58.35;102058.66;5009081;28;20088;-76
2022/01/29 06:41:28;;;;;;;10.68;4.25;;;;;;;3.89;59.53;102051.53;4996685;28;20046;-77
2022/01/29 06:43:56;;;;;;;10.07;4.75;;;;;;;3.86;58.95;102049.63;5003347;28;20455;-77
2022/01/29 06:46:25;;;;;;;10.88;4.45;;;;;;;3.86;60.10;102044.50;5005277;28;20129;-77
2022/01/29 06:48:55;;;;;;;7.47;3.90;;;;;;;3.84;59.85;102056.28;5003023;28;20480;-76
2022/01/29 06:51:23;;;;;;;11.15;4.55;;;;;;;3.81;59.96;102045.81;4992061;28;20570;-77
2022/01/29 06:53:52;;;;;;;8.15;3.55;;;;;;;3.81;59.79;102053.50;5002362;28;20109;-78
2022/01/29 06:56:20;;;;;;;8.15;3.97;;;;;;;3.81;60.44;102061.19;4990320;28;20046;-78
2022/01/29 06:58:49;;;;;;;9.82;4.03;;;;;;;3.80;60.26;102074.75;4995939;28;20053;-78
2022/01/29 07:01:20;;;;;;;9.10;4.15;;;;;;;3.78;60.98;102068.63;5010332;28;20054;-77
2022/01/29 07:03:48;;;;;;;7.78;3.53;;;;;;;3.74;60.51;102057.25;4991002;28;20051;-77
2022/01/29 07:06:18;;;;;;;7.38;3.90;;;;;;;3.67;59.95;102056.66;5000578;28;20049;-78
2022/01/29 07:08:47;;;;;;;10.80;4.00;;;;;;;3.56;60.65;102041.34;5009388;28;20496;-76
2022/01/29 07:11:19;;;;;;;10.88;4.13;;;;;;;3.56;61.42;102048.13;5009010;28;20054;-77
2022/01/29 07:13:47;;;;;;;9.20;4.33;;;;;;;3.57;60.46;102039.66;4994028;28;20057;-77
2022/01/29 07:16:16;;;;;;;9.55;3.80;;;;;;;3.57;60.46;102037.09;4989892;28;20284;-77
2022/01/29 07:18:44;;;;;;;10.57;4.00;;;;;;;3.57;60.60;102029.44;5003198;28;20112;-77
2022/01/29 07:21:13;;;;;;;9.88;4.15;;;;;;;3.56;61.60;102026.00;4990574;28;20081;-77
2022/01/29 07:23:43;;;;;;;8.15;3.75;;;;;;;3.56;60.98;102032.78;4990828;28;20148;-78
2022/01/29 07:26:11;;;;;;;8.45;4.13;;;;;;;3.55;60.93;102037.00;5012837;28;20092;-76
2022/01/29 07:28:40;;;;;;;10.00;4.07;;;;;;;3.55;60.92;102051.44;5003487;28;20078;-78
2022/01/29 07:31:09;;;;;;;9.15;4.07;;;;;;;3.56;60.21;102051.59;4999429;28;20046;-78
2022/01/29 07:33:37;;;;;;;7.97;3.65;;;;;;;3.55;60.29;102049.81;5003740;28;20404;-78
2022/01/29 07:36:06;;;;;;;10.27;4.65;;;;;;;3.56;61.05;102058.38;5009186;28;20076;-77
2022/01/29 07:38:35;;;;;;;8.13;3.67;;;;;;;3.57;60.30;102070.38;5012775;28;20061;-77
2022/01/29 07:41:05;;;;;;;8.05;3.97;;;;;;;3.56;60.78;102068.59;5013648;28;20050;-76
2022/01/29 07:43:34;;;;;;;10.15;4.15;;;;;;;3.55;60.68;102062.59;5009750;28;20073;-76
2022/01/29 07:46:02;;;;;;;8.85;4.20;;;;;;;3.50;59.58;102051.09;4994256;28;20046;-75
2022/01/29 07:48:31;;;;;;;7.88;4.07;;;;;;;3.48;60.91;102045.00;4993960;28;20598;-77
2022/01/29 07:50:59;;;;;;;10.25;4.32;;;;;;;3.44;61.95;102030.16;5004578;28;20050;-77
2022/01/29 07:53:28;;;;;;;7.90;3.90;;;;;;;3.41;61.60;102037.56;5008321;28;20050;-77
2022/01/29 07:55:56;;;;;;;9.57;4.15;;;;;;;3.37;62.15;102040.69;4993376;28;20539;-76
2022/01/29 07:58:26;;;;;;;8.30;3.92;;;;;;;3.32;62.13;102041.97;5006921;28;20459;-77
2022/01/29 08:00:55;;;;;;;8.68;3.65;;;;;;;3.27;63.01;102033.94;4993843;28;20263;-78
2022/01/29 08:03:23;;;;;;;7.10;4.05;;;;;;;3.23;62.54;102033.56;5006806;28;20077;-77
2022/01/29 08:05:52;;;;;;;7.85;3.70;;;;;;;3.17;63.40;102035.66;5000261;28;20049;-78
2022/01/29 08:08:20;;;;;;;9.48;4.38;;;;;;;3.10;64.18;102040.25;5012448;28;20531;-76
2022/01/29 08:10:49;;;;;;;8.43;4.22;;;;;;;3.07;63.64;102042.59;5012069;28;20073;-77
2022/01/29 08:13:17;;;;;;;8.07;4.45;;;;;;;3.03;63.77;102032.00;5001137;28;20098;-77
2022/01/29 08:15:47;;;;;;;10.18;4.45;;;;;;;2.99;64.14;102025.72;5008254;28;20057;-77
2022/01/29 08:18:16;;;;;;;6.00;3.40;;;;;;;2.94;65.41;102011.69;5000593;28;20045;-78
2022/01/29 08:20:44;;;;;;;8.82;4.13;;;;;;;2.82;65.38;101997.91;5011978;28;20049;-77
2022/01/29 08:23:13;;;;;;;6.95;3.63;;;;;;;2.80;65.34;101999.47;5005405;28;20050;-76
2022/01/29 08:25:41;;;;;;;9.35;4.32;;;;;;;2.80;65.04;102012.25;4993110;28;20428;-77
2022/01/29 08:28:10;;;;;;;9.18;4.50;;;;;;;2.78;64.25;102013.78;4997799;28;20105;-77
2022/01/29 08:30:38;;;;;;;7.60;3.75;;;;;;;2.78;63.86;102003.56;5000867;28;20054;-77
2022/01/29 08:33:11;;;;;;;14.32;7.20;;;;;;;2.77;64.41;101997.53;5009616;28;20198;-77
2022/01/29 08:35:39;;;;;;;8.75;5.25;;;;;;;2.72;65.08;102002.28;5011290;28;20112;-77
2022/01/29 08:38:08;;;;;;;7.63;4.10;;;;;;;2.70;65.46;101998.72;5012094;28;20077;-77
2022/01/29 08:40:36;;;;;;;8.13;3.80;;;;;;;2.65;65.49;101999.09;5011917;28;20112;-77
2022/01/29 08:43:05;;;;;;;10.30;4.45;;;;;;;2.61;66.56;101997.97;4998286;28;20195;-77
2022/01/29 08:45:34;;;;;;;10.88;5.07;;;;;;;2.58;66.51;102005.38;5009710;28;20551;-77
2022/01/29 08:48:02;;;;;;;11.40;5.05;;;;;;;2.56;66.98;102016.25;5004458;28;20050;-77
2022/01/29 08:50:33;;;;;;;10.27;5.07;;;;;;;2.51;66.73;102005.66;5011670;28;20108;-77
2022/01/29 08:53:01;;;;;;;7.45;3.85;;;;;;;2.46;67.28;101996.72;5011755;28;20116;-77
2022/01/29 08:55:36;;;;;;;8.38;4.32;;;;;;;2.42;67.44;101992.13;5012093;28;20050;-77
2022/01/29 08:58:05;;;;;;;6.78;4.35;;;;;;;2.38;68.12;101992.63;4998129;28;20133;-76
2022/01/29 09:00:34;;;;;;;8.43;4.55;;;;;;;2.34;67.81;102000.81;4998864;28;20049;-77
2022/01/29 09:03:03;;;;;;;7.95;3.65;;;;;;;2.28;68.28;102007.19;4999357;28;20104;-76
2022/01/29 09:05:34;;;;;;;9.07;3.63;;;;;;;2.24;68.53;101991.50;4996766;28;20042;-77
2022/01/29 09:08:03;;;;;;;7.90;3.17;;;;;;;2.19;69.46;101980.91;5000863;28;20089;-77
2022/01/29 09:10:32;;;;;;;7.28;3.53;;;;;;;2.15;69.31;101991.63;4995095;28;20101;-77
2022/01/29 09:13:00;;;;;;;7.47;3.42;;;;;;;2.08;69.48;101990.25;5001358;28;20138;-77
2022/01/29 09:15:29;;;;;;;7.63;3.40;;;;;;;2.05;70.09;101978.88;4991995;28;20109;-77
2022/01/29 09:17:58;;;;;;;7.20;3.42;;;;;;;1.93;72.06;101977.88;4997609;28;20555;-77
2022/01/29 09:20:26;;;;;;;6.53;2.97;;;;;;;1.87;72.20;101989.31;5011153;28;20053;-76
2022/01/29 09:22:56;;;;;;;6.93;3.55;;;;;;;1.86;72.33;101992.66;4992082;28;20046;-76
2022/01/29 09:25:26;;;;;;;10.70;5.10;;;;;;;1.85;72.46;101989.97;5003268;28;20042;-76
2022/01/29 09:27:55;;;;;;;11.07;5.53;;;;;;;1.84;72.54;101989.06;4997320;28;20062;-77
2022/01/29 09:30:24;;;;;;;12.45;4.70;;;;;;;1.82;72.85;101985.50;5001028;28;20085;-76
2022/01/29 09:32:52;;;;;;;10.68;4.22;;;;;;;1.78;72.85;101983.44;5007575;28;20508;-77
2022/01/29 09:35:21;;;;;;;10.27;4.60;;;;;;;1.76;72.71;101979.88;5011269;28;20045;-77
2022/01/29 09:37:49;;;;;;;12.75;4.82;;;;;;;1.71;72.48;101976.03;4997197;28;20054;-77
2022/01/29 09:40:20;;;;;;;9.25;4.53;;;;;;;1.66;73.48;101964.56;5011375;28;20045;-77
2022/01/29 09:42:50;;;;;;;9.90;4.57;;;;;;;1.62;73.65;101965.06;5010597;28;20053;-77
2022/01/29 09:45:20;;;;;;;6.45;4.55;;;;;;;1.58;73.35;101963.00;5006648;28;20042;-77
2022/01/29 09:47:50;;;;;;;10.43;4.40;;;;;;;1.53;73.44;101969.38;5005366;28;20115;-77
2022/01/29 09:50:19;;;;;;;11.02;4.53;;;;;;;1.50;73.68;101974.22;5007754;28;20108;-77
2022/01/29 09:52:48;;;;;;;10.98;4.72;;;;;;;1.48;73.21;101984.28;5004102;28;20050;-77
2022/01/29 09:55:16;;;;;;;7.13;4.07;;;;;;;1.44;73.15;101990.81;5005814;28;20077;-77
2022/01/29 09:57:46;;;;;;;9.88;4.10;;;;;;;1.45;74.03;101982.38;5001788;28;20092;-76
2022/01/29 10:00:16;;;;;;;7.78;3.78;;;;;;;1.42;74.27;101987.22;4997363;28;20097;-76
2022/01/29 10:02:44;;;;;;;8.35;4.05;;;;;;;1.41;74.06;101975.22;5000389;28;20054;-77
2022/01/29 10:05:13;;;;;;;8.00;4.32;;;;;;;1.39;74.04;101971.63;4992740;28;20508;-77
2022/01/29 10:07:42;;;;;;;10.40;4.18;;;;;;;1.36;74.55;101981.59;5010520;28;20045;-77
2022/01/29 10:10:20;;;;;;;8.82;3.92;;;;;;;1.29;73.75;101974.16;4995929;28;20074;-77
2022/01/29 10:12:51;;;;;;;8.60;4.10;;;;;;;1.23;74.37;101978.72;4990158;28;20535;-77
2022/01/29 10:15:23;;;;;;;7.40;3.78;;;;;;;1.18;74.28;101990.19;4991094;28;20046;-76
2022/01/29 10:17:53;;;;;;;13.25;7.22;;;;;;;1.15;74.80;101979.75;4997813;28;20137;-77
2022/01/29 10:20:23;;;;;;;9.02;4.25;;;;;;;1.14;75.20;101978.81;5009578;28;20050;-77
2022/01/29 10:22:54;;;;;;;10.18;4.43;;;;;;;1.13;75.82;101976.16;4995646;28;20053;-77
2022/01/29 10:25:24;;;;;;;8.15;3.08;;;;;;;1.14;75.49;101977.94;5009877;28;20050;-76
2022/01/29 10:28:11;;;;;;;6.70;3.80;;;;;;;1.13;75.47;101965.97;4993993;28;20100;-77
2022/01/29 10:30:57;;;;;;;9.70;3.95;;;;;;;1.12;75.98;101970.16;5007983;28;20053;-77
2022/01/29 10:33:27;;;;;;;8.25;3.50;;;;;;;1.10;75.61;101980.97;5009562;28;20148;-77
2022/01/29 10:35:56;;;;;;;9.63;3.85;;;;;;;1.00;76.61;101966.53;4997401;28;20579;-77
2022/01/29 10:38:26;;;;;;;9.18;3.67;;;;;;;1.04;77.41;101983.91;4996263;28;20112;-77
2022/01/29 10:41:16;;;;;;;12.50;4.70;;;;;;;1.03;77.12;101990.66;5010337;28;20058;-77
2022/01/29 10:44:09;;;;;;;7.20;4.10;;;;;;;1.04;76.53;101997.53;5002659;28;20050;-77
2022/01/29 10:46:40;;;;;;;11.20;3.53;;;;;;;1.04;75.89;101997.53;5005276;28;20057;-78
2022/01/29 10:49:08;;;;;;;6.00;2.83;;;;;;;1.06;76.26;101991.69;4992046;28;20081;-77
2022/01/29 10:51:37;;;;;;;11.07;4.43;;;;;;;1.03;76.10;101985.56;5007816;28;20046;-77
2022/01/29 10:54:19;;;;;;;12.88;4.00;;;;;;;1.06;75.60;101986.59;5009895;28;20049;-77
2022/01/29 10:56:57;;;;;;;8.48;3.95;;;;;;;1.04;75.82;101976.25;5006074;28;20050;-78
2022/01/29 10:59:28;;;;;;;9.05;3.95;;;;;;;1.05;75.60;101978.03;5000307;28;20495;-78
2022/01/29 11:01:58;;;;;;;11.07;4.18;;;;;;;1.05;75.38;101972.94;4995913;28;20296;-78
2022/01/29 11:04:29;;;;;;;8.05;3.85;;;;;;;0.95;75.61;101960.16;5010175;28;20057;-78
2022/01/29 11:07:02;;;;;;;11.70;4.00;;;;;;;0.99;74.92;101974.97;5009337;28;20081;-77
2022/01/29 11:09:31;;;;;;;9.48;3.90;;;;;;;0.99;76.18;101980.06;5001744;28;20085;-78
2022/01/29 11:12:03;;;;;;;8.63;3.50;;;;;;;1.01;76.54;101981.09;5003979;28;20409;-77
2022/01/29 11:14:35;;;;;;;7.60;3.60;;;;;;;1.00;75.78;101981.84;5002214;28;20050;-78
2022/01/29 11:17:05;;;;;;;9.83;3.83;;;;;;;0.96;75.50;101973.03;5002404;28;20283;-78
2022/01/29 11:19:34;;;;;;;8.57;4.82;;;;;;;0.95;75.41;101963.59;5002130;28;20362;-77
2022/01/29 11:22:06;;;;;;;8.55;3.70;;;;;;;0.89;76.11;101950.31;5009626;28;20535;-77
2022/01/29 11:24:36;;;;;;;7.45;3.72;;;;;;;0.92;76.52;101960.78;4995046;28;20054;-77
2022/01/29 11:27:29;;;;;;;10.70;4.90;;;;;;;0.90;76.79;101969.94;5009875;28;20699;-77
2022/01/29 11:30:12;;;;;;;12.07;4.70;;;;;;;0.88;76.14;101973.13;5004007;28;20054;-76
2022/01/29 11:32:42;;;;;;;13.20;5.60;;;;;;;0.86;76.24;101975.53;5002793;28;20069;-76
2022/01/29 11:35:16;;;;;;;11.00;4.78;;;;;;;0.80;75.82;101974.97;4995746;28;20125;-77
2022/01/29 11:37:53;;;;;;;18.77;6.65;;;;;;;0.72;76.31;101978.53;5009343;28;20053;-77
2022/01/29 11:40:25;;;;;;;8.95;4.50;;;;;;;0.67;76.71;101982.31;5010144;28;20065;-77
2022/01/29 11:43:04;;;;;;;12.35;4.25;;;;;;;0.66;77.55;101980.50;5008658;28;20487;-76
2022/01/29 11:45:54;;;;;;;13.52;5.00;;;;;;;0.67;76.99;101987.41;5000113;28;20072;-77
2022/01/29 11:48:54;;;;;;;11.20;4.88;;;;;;;0.66;77.57;101993.25;4994281;28;20120;-76
2022/01/29 11:51:46;;;;;;;15.45;5.70;;;;;;;0.65;77.83;101994.03;4977285;28;20046;-77
2022/01/29 11:54:33;;;;;;;11.52;5.38;;;;;;;0.63;77.68;101989.66;5000181;28;20062;-77